Time;durP1;ratioP1;P1;durP2;ratioP2;P2;SDS_P1;SDS_P2;PMS_P1;PMS_P2;Temp;Humidity;BMP_temperature;BMP_pressure;BME280_temperature;BME280_humidity;BME280_pressure;Samples;Min_cycle;Max_cycle;Signal;HPM_P1;HPM_P2
2023/10/13 00:02:27;;;;;;;23.35;10.65;;;;;14.90;96477.00;;;;8411535;28;20895;-65
2023/10/13 00:06:31;;;;;;;28.10;10.80;;;;;14.80;96470.00;;;;8411055;28;20210;-65
2023/10/13 00:10:34;;;;;;;27.33;11.10;;;;;14.70;96476.00;;;;8407292;28;20239;-64
2023/10/13 00:14:39;;;;;;;20.90;10.75;;;;;14.70;96495.00;;;;8413281;28;20231;-65
2023/10/13 00:18:43;;;;;;;27.77;11.25;;;;;14.70;96468.00;;;;8414016;28;20315;-65
2023/10/13 00:22:48;;;;;;;26.80;12.00;;;;;14.80;96470.00;;;;8411203;28;20196;-66
2023/10/13 00:26:53;;;;;;;27.45;11.13;;;;;14.80;96467.00;;;;8413078;28;20196;-65
2023/10/13 00:31:03;;;;;;;23.65;10.57;;;;;14.90;96459.00;;;;8410326;28;20237;-66
2023/10/13 00:35:11;;;;;;;27.20;9.90;;;;;14.90;96453.00;;;;8410163;28;20204;-65
2023/10/13 00:39:15;;;;;;;25.23;10.55;;;;;14.80;96451.00;;;;8407266;28;20211;-66
2023/10/13 00:43:35;;;;;;;24.67;11.13;;;;;14.70;96435.00;;;;8406928;28;20207;-64
2023/10/13 00:47:40;;;;;;;31.23;12.07;;;;;14.60;96439.00;;;;8410186;28;20191;-66
2023/10/13 00:51:47;;;;;;;24.23;10.52;;;;;14.60;96437.00;;;;8410696;28;20232;-65
2023/10/13 00:55:49;;;;;;;22.45;10.93;;;;;14.60;96448.00;;;;8410296;28;20715;-65
2023/10/13 00:59:53;;;;;;;31.73;10.98;;;;;14.60;96453.00;;;;8405607;28;20366;-65
2023/10/13 01:03:59;;;;;;;29.55;11.65;;;;;14.60;96452.00;;;;8413510;28;20632;-66
2023/10/13 01:08:03;;;;;;;30.35;10.95;;;;;14.70;96444.00;;;;8418428;28;20265;-66
2023/10/13 01:12:08;;;;;;;30.98;11.65;;;;;14.70;96440.00;;;;8418709;28;20245;-65
2023/10/13 01:16:11;;;;;;;36.55;10.93;;;;;14.60;96444.00;;;;8417676;28;20702;-65
2023/10/13 01:20:24;;;;;;;24.98;10.93;;;;;14.50;96439.00;;;;8416918;28;20568;-65
2023/10/13 01:24:31;;;;;;;24.13;11.55;;;;;14.50;96440.00;;;;8419115;28;20192;-65
2023/10/13 01:28:44;;;;;;;32.40;12.10;;;;;14.40;96426.00;;;;8420284;28;20739;-64
2023/10/13 01:32:47;;;;;;;30.33;11.52;;;;;14.30;96425.00;;;;8410023;28;20196;-65
2023/10/13 01:36:51;;;;;;;32.38;12.95;;;;;14.20;96431.00;;;;8416956;28;20233;-65
2023/10/13 01:40:58;;;;;;;33.45;12.57;;;;;14.10;96432.00;;;;8417022;28;20195;-66
2023/10/13 01:45:05;;;;;;;32.67;11.82;;;;;13.90;96436.00;;;;8410176;28;20200;-65
2023/10/13 01:49:08;;;;;;;27.05;12.20;;;;;13.80;96440.00;;;;8415169;28;20226;-65
2023/10/13 01:53:12;;;;;;;30.40;12.45;;;;;13.80;96439.00;;;;8417252;28;20191;-65
2023/10/13 01:57:17;;;;;;;28.23;11.82;;;;;13.80;96427.00;;;;8416950;28;20222;-65
2023/10/13 02:01:27;;;;;;;32.80;13.05;;;;;13.70;96434.00;;;;8412215;28;20294;-65
2023/10/13 02:05:35;;;;;;;29.48;12.40;;;;;13.60;96435.00;;;;8410833;28;20218;-65
2023/10/13 02:09:38;;;;;;;42.28;12.65;;;;;13.50;96428.00;;;;8415861;28;20272;-64
2023/10/13 02:13:48;;;;;;;27.50;12.15;;;;;13.50;96426.00;;;;8414409;28;20776;-64
2023/10/13 02:17:54;;;;;;;33.42;12.10;;;;;13.50;96430.00;;;;8413787;28;20200;-65
2023/10/13 02:21:59;;;;;;;32.97;12.90;;;;;13.40;96434.00;;;;8412628;28;20253;-65
2023/10/13 02:26:10;;;;;;;30.95;12.52;;;;;13.30;96430.00;;;;8415255;28;20662;-64
2023/10/13 02:30:15;;;;;;;38.40;13.50;;;;;13.20;96414.00;;;;8412660;28;20306;-65
2023/10/13 02:34:18;;;;;;;32.58;12.65;;;;;13.20;96401.00;;;;8414079;28;20229;-64
2023/10/13 02:38:32;;;;;;;29.95;12.55;;;;;13.10;96416.00;;;;8413153;28;20207;-64
2023/10/13 02:42:36;;;;;;;35.13;13.45;;;;;13.00;96417.00;;;;8408353;28;20216;-65
2023/10/13 02:46:40;;;;;;;34.22;13.60;;;;;12.90;96418.00;;;;8412396;28;20804;-64
2023/10/13 02:50:45;;;;;;;90.90;15.27;;;;;12.90;96403.00;;;;8414021;28;20261;-65
2023/10/13 02:54:50;;;;;;;29.10;12.48;;;;;12.80;96402.00;;;;8412089;28;20205;-64
2023/10/13 02:58:56;;;;;;;37.60;14.20;;;;;12.80;96405.00;;;;8411479;28;20215;-65
2023/10/13 03:03:01;;;;;;;42.67;14.57;;;;;12.80;96398.00;;;;8393191;22;20251;-64
2023/10/13 03:07:04;;;;;;;40.05;14.10;;;;;12.80;96394.00;;;;8328391;28;20527;-64
2023/10/13 03:11:09;;;;;;;36.22;14.18;;;;;12.80;96389.00;;;;8332474;28;20230;-63
2023/10/13 03:15:17;;;;;;;41.08;14.93;;;;;12.80;96387.00;;;;8335576;28;20288;-63
2023/10/13 03:19:22;;;;;;;35.40;14.07;;;;;12.80;96389.00;;;;8333031;28;20604;-64
2023/10/13 03:23:25;;;;;;;39.83;14.68;;;;;12.90;96395.00;;;;8337271;28;20613;-64
2023/10/13 03:27:40;;;;;;;36.03;14.73;;;;;13.00;96393.00;;;;8340555;28;20204;-64
2023/10/13 03:31:45;;;;;;;46.80;14.55;;;;;13.00;96392.00;;;;8327742;28;20378;-63
2023/10/13 03:35:54;;;;;;;34.72;14.48;;;;;13.00;96400.00;;;;8337687;28;20189;-64
2023/10/13 03:39:59;;;;;;;29.83;13.43;;;;;13.00;96404.00;;;;8343977;28;20295;-62
2023/10/13 03:44:12;;;;;;;38.88;14.75;;;;;13.00;96402.00;;;;8337877;28;20203;-62
2023/10/13 03:48:28;;;;;;;37.20;14.20;;;;;13.00;96400.00;;;;8339465;28;20322;-61
2023/10/13 03:52:35;;;;;;;40.40;13.73;;;;;13.00;96388.00;;;;8342996;28;20228;-62
2023/10/13 03:56:44;;;;;;;38.00;14.13;;;;;13.00;96384.00;;;;8342202;28;20220;-62
2023/10/13 04:00:47;;;;;;;35.95;14.20;;;;;13.10;96385.00;;;;8342601;28;20204;-62
2023/10/13 04:04:55;;;;;;;40.88;14.15;;;;;12.90;96385.00;;;;8339323;28;20201;-67
2023/10/13 04:17:45;;;;;;;37.75;14.80;;;;;12.80;96377.00;;;;8338201;28;20215;-62
2023/10/13 04:21:58;;;;;;;34.83;13.68;;;;;12.70;96383.00;;;;8341573;28;20201;-61
2023/10/13 04:26:09;;;;;;;46.47;15.63;;;;;12.60;96382.00;;;;8336082;28;20282;-60
2023/10/13 04:30:24;;;;;;;36.72;14.63;;;;;12.60;96368.00;;;;8337769;28;20340;-61
2023/10/13 04:34:38;;;;;;;35.90;14.05;;;;;12.50;96379.00;;;;8331554;28;20256;-62
2023/10/13 04:38:55;;;;;;;37.40;14.45;;;;;12.50;96376.00;;;;8326869;28;20225;-63
2023/10/13 04:43:04;;;;;;;38.45;15.13;;;;;12.50;96368.00;;;;8333794;28;20661;-62
2023/10/13 04:47:08;;;;;;;36.22;15.10;;;;;12.40;96358.00;;;;8330436;28;20204;-63
2023/10/13 04:51:49;;;;;;;41.90;14.88;;;;;12.30;96360.00;;;;8342237;28;20318;-63
2023/10/13 04:56:08;;;;;;;33.95;14.02;;;;;12.20;96360.00;;;;8326002;28;20255;-63
2023/10/13 05:05:11;;;;;;;32.90;13.13;;;;;12.00;96360.00;;;;8326267;28;20239;-63
2023/10/13 05:48:24;;;;;;;32.08;12.65;;;;;11.80;96380.00;;;;8347376;28;20240;-62
2023/10/13 06:31:45;;;;;;;34.47;13.73;;;;;13.10;96401.00;;;;8334578;28;20957;-62
2023/10/13 06:35:51;;;;;;;35.72;14.23;;;;;13.30;96402.00;;;;8339414;28;20620;-62
2023/10/13 06:39:56;;;;;;;44.25;15.13;;;;;13.50;96399.00;;;;8346191;28;20303;-62
2023/10/13 06:44:00;;;;;;;42.03;15.68;;;;;13.70;96405.00;;;;8346629;28;20208;-61
2023/10/13 06:48:04;;;;;;;32.58;13.68;;;;;13.80;96400.00;;;;8345164;28;20196;-61
2023/10/13 06:52:08;;;;;;;42.38;17.58;;;;;14.00;96406.00;;;;8344019;28;20228;-62
2023/10/13 06:56:11;;;;;;;39.38;16.30;;;;;14.20;96412.00;;;;8346943;28;20291;-62
2023/10/13 07:00:27;;;;;;;35.95;16.05;;;;;14.40;96413.00;;;;8344346;28;20650;-62
2023/10/13 07:04:30;;;;;;;30.25;14.55;;;;;14.60;96420.00;;;;8337385;28;20228;-62
2023/10/13 07:08:37;;;;;;;28.60;13.85;;;;;14.80;96410.00;;;;8340050;28;20677;-63
2023/10/13 07:12:43;;;;;;;32.17;18.13;;;;;15.00;96418.00;;;;8343618;28;20227;-64
2023/10/13 07:16:59;;;;;;;30.83;16.83;;;;;15.20;96413.00;;;;8336926;28;20204;-64
2023/10/13 07:21:09;;;;;;;29.70;15.80;;;;;15.40;96419.00;;;;8339918;28;20212;-64
2023/10/13 07:25:23;;;;;;;27.17;12.88;;;;;15.60;96416.00;;;;8340451;28;20712;-64
2023/10/13 07:29:26;;;;;;;23.05;10.88;;;;;15.90;96419.00;;;;8334346;28;20211;-64
2023/10/13 07:33:31;;;;;;;20.25;10.23;;;;;16.00;96416.00;;;;8334024;28;20232;-63
2023/10/13 07:37:34;;;;;;;17.30;9.63;;;;;16.30;96413.00;;;;8337516;28;20634;-65
2023/10/13 07:41:41;;;;;;;28.70;13.57;;;;;16.50;96417.00;;;;8338834;28;20224;-66
2023/10/13 07:45:44;;;;;;;46.33;23.92;;;;;16.70;96413.00;;;;8341873;28;20284;-66
2023/10/13 07:49:50;;;;;;;28.88;13.23;;;;;16.90;96421.00;;;;8338366;28;20240;-65
2023/10/13 07:53:54;;;;;;;84.68;40.95;;;;;17.10;96410.00;;;;8335468;28;20225;-65
2023/10/13 07:58:00;;;;;;;29.77;13.27;;;;;17.20;96417.00;;;;8341466;28;20317;-66
2023/10/13 08:02:15;;;;;;;14.82;9.43;;;;;17.40;96412.00;;;;8336135;28;20627;-64
2023/10/13 08:06:26;;;;;;;14.38;7.15;;;;;17.60;96404.00;;;;8336413;28;20196;-64
2023/10/13 08:10:36;;;;;;;15.02;6.70;;;;;17.80;96391.00;;;;8341718;28;20205;-64
2023/10/13 08:14:41;;;;;;;10.75;6.03;;;;;18.10;96392.00;;;;8340264;28;20201;-64
2023/10/13 08:18:45;;;;;;;11.30;5.68;;;;;18.30;96387.00;;;;8337885;28;20192;-65
2023/10/13 08:22:49;;;;;;;15.57;6.10;;;;;18.70;96390.00;;;;8331488;28;20205;-67
2023/10/13 08:27:15;;;;;;;10.50;5.50;;;;;19.00;96391.00;;;;8338647;28;20207;-63
2023/10/13 08:31:22;;;;;;;12.73;4.97;;;;;19.40;96390.00;;;;8328275;28;20224;-64
2023/10/13 08:35:37;;;;;;;8.15;4.60;;;;;19.70;96405.00;;;;8336617;28;20280;-63
2023/10/13 08:44:09;;;;;;;9.35;4.75;;;;;20.10;96399.00;;;;8338476;28;20618;-64
2023/10/13 08:48:14;;;;;;;40.63;14.18;;;;;20.40;96397.00;;;;8333112;28;20208;-64
2023/10/13 08:52:45;;;;;;;103.55;29.40;;;;;20.60;96397.00;;;;8342597;28;20692;-63
2023/10/13 08:56:56;;;;;;;94.82;35.08;;;;;20.80;96399.00;;;;8333543;28;20197;-62
2023/10/13 09:01:13;;;;;;;30.50;12.70;;;;;21.00;96408.00;;;;8333669;28;20206;-67
2023/10/13 09:09:59;;;;;;;24.52;11.68;;;;;21.50;96397.00;;;;8333940;28;20224;-64
2023/10/13 09:14:04;;;;;;;7.25;3.60;;;;;21.80;96383.00;;;;8326073;28;20260;-64
2023/10/13 09:18:14;;;;;;;7.00;3.60;;;;;22.00;96387.00;;;;8330227;28;20204;-64
2023/10/13 09:22:28;;;;;;;9.82;4.05;;;;;22.40;96382.00;;;;8334759;28;20304;-63
2023/10/13 09:26:35;;;;;;;15.02;4.05;;;;;23.00;96387.00;;;;8336764;28;20630;-62
2023/10/13 09:30:45;;;;;;;11.50;3.55;;;;;23.30;96378.00;;;;8341469;28;21974;-62
2023/10/13 09:34:51;;;;;;;10.10;3.70;;;;;23.60;96383.00;;;;8339221;28;20221;-62
2023/10/13 09:39:13;;;;;;;12.15;3.72;;;;;23.60;96378.00;;;;8336882;28;20674;-62
2023/10/13 09:43:21;;;;;;;7.43;3.42;;;;;23.80;96371.00;;;;8346402;28;20279;-62
2023/10/13 09:47:31;;;;;;;13.85;3.80;;;;;23.90;96377.00;;;;8335096;28;20213;-63
2023/10/13 09:51:35;;;;;;;6.20;3.47;;;;;24.10;96379.00;;;;8345117;28;20248;-62
2023/10/13 09:55:44;;;;;;;8.68;3.25;;;;;24.30;96373.00;;;;8342435;28;20217;-62
2023/10/13 09:59:52;;;;;;;8.15;3.70;;;;;24.60;96368.00;;;;8340723;28;20204;-62
2023/10/13 10:04:08;;;;;;;12.43;3.38;;;;;25.00;96369.00;;;;8346102;28;20224;-62
2023/10/13 10:08:12;;;;;;;9.43;3.67;;;;;25.40;96364.00;;;;8343646;28;20201;-63
2023/10/13 10:12:25;;;;;;;5.70;3.15;;;;;25.60;96369.00;;;;8336345;28;20312;-63
2023/10/13 10:16:46;;;;;;;6.03;3.38;;;;;25.60;96361.00;;;;8338474;28;20273;-63
2023/10/13 10:20:54;;;;;;;8.60;3.50;;;;;25.70;96369.00;;;;8337518;28;20237;-62
2023/10/13 10:24:59;;;;;;;7.75;3.70;;;;;25.90;96368.00;;;;8341735;28;20239;-64
2023/10/13 10:29:13;;;;;;;7.93;3.72;;;;;26.40;96364.00;;;;8346027;28;20197;-63
2023/10/13 10:33:18;;;;;;;6.82;3.47;;;;;26.60;96372.00;;;;8340180;28;20243;-63
2023/10/13 10:37:25;;;;;;;13.60;3.95;;;;;26.60;96362.00;;;;8342513;28;20737;-62
2023/10/13 10:41:39;;;;;;;5.45;3.40;;;;;26.40;96355.00;;;;8336451;28;20711;-64
2023/10/13 10:45:48;;;;;;;9.07;3.63;;;;;26.60;96348.00;;;;8336445;28;20205;-63
2023/10/13 10:49:52;;;;;;;44.75;24.23;;;;;26.90;96343.00;;;;8343674;28;20204;-63
2023/10/13 10:53:57;;;;;;;7.55;3.67;;;;;27.30;96338.00;;;;8339706;28;20224;-63
2023/10/13 10:58:01;;;;;;;7.88;3.85;;;;;27.30;96322.00;;;;8340072;28;20403;-63
2023/10/13 11:02:06;;;;;;;14.38;6.45;;;;;27.10;96313.00;;;;8343959;28;20287;-64
2023/10/13 11:06:17;;;;;;;11.88;3.67;;;;;26.80;96300.00;;;;8343252;28;20193;-65
2023/10/13 11:10:31;;;;;;;9.45;3.15;;;;;26.70;96302.00;;;;8345747;28;20243;-64
2023/10/13 11:14:35;;;;;;;14.77;4.10;;;;;26.60;96296.00;;;;8346244;28;20582;-65
2023/10/13 11:18:40;;;;;;;11.48;3.25;;;;;26.30;96285.00;;;;8344982;28;20287;-63
2023/10/13 11:22:48;;;;;;;6.20;3.42;;;;;26.30;96280.00;;;;8336276;28;20201;-65
2023/10/13 11:26:54;;;;;;;9.85;3.40;;;;;26.40;96281.00;;;;8333872;28;20196;-65
2023/10/13 11:30:59;;;;;;;10.65;3.50;;;;;26.50;96280.00;;;;8341500;28;20307;-65
2023/10/13 11:35:09;;;;;;;8.52;3.47;;;;;26.60;96275.00;;;;8342027;28;20230;-63
2023/10/13 11:39:22;;;;;;;5.72;3.28;;;;;26.70;96278.00;;;;8337288;28;20197;-64
2023/10/13 11:43:27;;;;;;;6.93;3.40;;;;;26.70;96268.00;;;;8337329;28;20507;-65
2023/10/13 11:47:50;;;;;;;11.35;3.58;;;;;26.60;96267.00;;;;8339821;28;20373;-64
2023/10/13 11:52:01;;;;;;;7.78;3.78;;;;;26.80;96258.00;;;;8339227;28;20504;-63
2023/10/13 11:56:08;;;;;;;7.57;3.50;;;;;26.90;96245.00;;;;8339867;28;20280;-64
2023/10/13 12:00:26;;;;;;;8.95;3.65;;;;;26.80;96247.00;;;;8328909;28;20243;-64
2023/10/13 12:04:32;;;;;;;4.35;2.72;;;;;26.90;96240.00;;;;8339547;28;20233;-64
2023/10/13 12:08:49;;;;;;;8.45;3.75;;;;;26.90;96234.00;;;;8341637;28;20791;-65
2023/10/13 12:12:54;;;;;;;9.27;3.45;;;;;27.10;96233.00;;;;8336443;28;20689;-64
2023/10/13 12:17:04;;;;;;;9.50;3.15;;;;;27.20;96231.00;;;;8343368;28;20196;-65
2023/10/13 12:21:12;;;;;;;5.65;3.45;;;;;27.20;96232.00;;;;8337969;28;20716;-63
2023/10/13 12:25:25;;;;;;;9.27;3.22;;;;;27.10;96221.00;;;;8341733;28;20315;-64
2023/10/13 12:29:29;;;;;;;13.68;2.88;;;;;27.20;96211.00;;;;8339583;28;20288;-63
2023/10/13 12:33:40;;;;;;;4.63;2.83;;;;;27.40;96202.00;;;;8337184;28;20250;-62
2023/10/13 12:38:04;;;;;;;8.13;3.08;;;;;27.60;96203.00;;;;8328733;28;20205;-63
2023/10/13 12:51:07;;;;;;;8.90;3.00;;;;;27.70;96175.00;;;;8337897;28;20207;-62
2023/10/13 12:55:13;;;;;;;10.98;3.30;;;;;27.80;96172.00;;;;8334490;28;20237;-63
2023/10/13 12:59:17;;;;;;;6.45;2.80;;;;;27.90;96170.00;;;;8338378;28;20284;-62
2023/10/13 13:03:21;;;;;;;6.72;2.85;;;;;28.00;96169.00;;;;8344190;28;20267;-63
2023/10/13 13:07:29;;;;;;;4.70;2.35;;;;;28.10;96164.00;;;;8342251;28;20193;-64
2023/10/13 13:11:37;;;;;;;5.85;2.75;;;;;28.20;96160.00;;;;8324779;28;20347;-64
2023/10/13 13:15:40;;;;;;;10.80;2.60;;;;;28.20;96157.00;;;;8339789;28;20239;-63
2023/10/13 13:19:43;;;;;;;13.25;3.10;;;;;28.20;96152.00;;;;8338106;28;20272;-63
2023/10/13 13:23:48;;;;;;;9.88;2.78;;;;;28.20;96148.00;;;;8329839;28;20280;-64
2023/10/13 13:27:51;;;;;;;6.82;2.60;;;;;28.20;96137.00;;;;8333756;28;20300;-63
2023/10/13 13:31:55;;;;;;;12.18;3.15;;;;;28.30;96137.00;;;;8330827;28;20822;-64
2023/10/13 13:36:00;;;;;;;7.13;3.20;;;;;28.30;96124.00;;;;8335367;28;20312;-64
2023/10/13 13:40:14;;;;;;;8.30;2.63;;;;;28.30;96119.00;;;;8340668;28;20208;-64
2023/10/13 13:44:18;;;;;;;7.53;3.10;;;;;28.30;96124.00;;;;8330631;28;20205;-62
2023/10/13 13:48:21;;;;;;;10.60;2.92;;;;;28.20;96120.00;;;;8335630;28;20204;-64
2023/10/13 13:52:33;;;;;;;12.95;2.50;;;;;28.10;96114.00;;;;8336396;28;20305;-64
2023/10/13 13:56:39;;;;;;;6.30;2.95;;;;;28.00;96112.00;;;;8331595;28;20201;-63
2023/10/13 14:00:48;;;;;;;11.90;3.28;;;;;28.10;96103.00;;;;8341799;28;20283;-63
2023/10/13 14:04:52;;;;;;;10.43;2.85;;;;;28.10;96097.00;;;;8326789;28;20201;-64
2023/10/13 14:08:59;;;;;;;10.57;3.13;;;;;28.30;96084.00;;;;8343259;28;20204;-64
2023/10/13 14:13:12;;;;;;;13.00;3.78;;;;;28.40;96079.00;;;;8344949;28;20278;-65
2023/10/13 14:17:16;;;;;;;6.40;2.78;;;;;28.70;96076.00;;;;8341973;28;20197;-63
2023/10/13 14:21:20;;;;;;;7.72;2.40;;;;;28.70;96071.00;;;;8342283;28;20219;-63
2023/10/13 14:25:28;;;;;;;8.05;2.95;;;;;28.80;96062.00;;;;8338701;28;20296;-62
2023/10/13 14:29:33;;;;;;;9.27;2.90;;;;;28.90;96056.00;;;;8342692;28;20198;-63
2023/10/13 14:33:36;;;;;;;9.50;3.13;;;;;28.90;96054.00;;;;8340698;28;20708;-63
2023/10/13 14:37:39;;;;;;;6.22;2.70;;;;;28.90;96043.00;;;;8341475;28;20224;-63
2023/10/13 14:41:43;;;;;;;9.70;2.80;;;;;28.90;96046.00;;;;8348244;28;20224;-64
2023/10/13 14:45:47;;;;;;;12.27;3.08;;;;;28.80;96036.00;;;;8347182;28;20200;-62
2023/10/13 14:49:50;;;;;;;7.75;2.90;;;;;28.70;96041.00;;;;8344992;28;20228;-63
2023/10/13 14:53:56;;;;;;;8.88;2.75;;;;;28.60;96034.00;;;;8340795;28;20271;-63
2023/10/13 14:57:59;;;;;;;9.07;2.88;;;;;28.50;96028.00;;;;8345882;28;20204;-63
2023/10/13 15:02:04;;;;;;;10.80;2.95;;;;;28.40;96025.00;;;;8329153;28;20635;-62
2023/10/13 15:06:07;;;;;;;15.25;3.38;;;;;28.30;96024.00;;;;8348158;28;20220;-62
2023/10/13 15:10:14;;;;;;;9.68;2.80;;;;;28.20;96015.00;;;;8346512;28;20295;-64
2023/10/13 15:14:19;;;;;;;12.52;3.28;;;;;28.00;96012.00;;;;8344436;28;20228;-62
2023/10/13 15:18:25;;;;;;;6.93;2.72;;;;;27.80;96016.00;;;;8339501;28;20201;-63
2023/10/13 15:22:28;;;;;;;15.48;3.17;;;;;27.60;96011.00;;;;8344192;28;20806;-63
2023/10/13 15:26:37;;;;;;;7.10;3.30;;;;;27.50;96001.00;;;;8337993;28;20212;-65
2023/10/13 15:30:52;;;;;;;11.80;3.08;;;;;27.20;96003.00;;;;8342508;28;20228;-65
2023/10/13 15:34:57;;;;;;;9.85;3.05;;;;;27.00;95999.00;;;;8336363;28;20229;-66
2023/10/13 15:39:01;;;;;;;9.70;2.90;;;;;26.80;95991.00;;;;8329396;28;20318;-65
2023/10/13 15:43:05;;;;;;;10.95;3.30;;;;;26.60;95994.00;;;;8332510;28;20241;-65
2023/10/13 15:47:12;;;;;;;11.35;3.20;;;;;26.40;95987.00;;;;8346119;28;20189;-66
2023/10/13 15:51:20;;;;;;;5.13;2.88;;;;;26.20;95988.00;;;;8329708;28;20868;-64
2023/10/13 15:55:23;;;;;;;8.20;3.05;;;;;26.00;95992.00;;;;8336717;28;20722;-63
2023/10/13 15:59:28;;;;;;;10.73;3.67;;;;;25.80;95982.00;;;;8342937;28;20724;-66
2023/10/13 16:03:31;;;;;;;7.05;3.28;;;;;25.60;95976.00;;;;8337726;28;20950;-65
2023/10/13 16:07:37;;;;;;;12.82;2.88;;;;;25.10;95973.00;;;;8333128;28;20244;-66
2023/10/13 16:11:42;;;;;;;11.73;3.28;;;;;24.60;95965.00;;;;8338199;28;20655;-64
2023/10/13 16:15:47;;;;;;;11.07;3.90;;;;;24.00;95965.00;;;;8334984;28;20354;-65
2023/10/13 16:19:53;;;;;;;9.02;2.70;;;;;23.40;95966.00;;;;8337733;28;20201;-65
2023/10/13 16:23:58;;;;;;;8.50;3.67;;;;;22.90;95965.00;;;;8345467;28;20630;-65
2023/10/13 16:28:01;;;;;;;9.45;3.60;;;;;22.40;95956.00;;;;8340803;28;20231;-63
2023/10/13 16:32:05;;;;;;;6.90;3.40;;;;;22.10;95956.00;;;;8339409;28;20840;-63
2023/10/13 16:36:09;;;;;;;6.30;3.15;;;;;21.70;95965.00;;;;8334398;28;20344;-63
2023/10/13 16:40:18;;;;;;;12.05;3.15;;;;;21.40;95959.00;;;;8332483;28;20212;-63
2023/10/13 16:44:25;;;;;;;10.23;3.10;;;;;21.00;95960.00;;;;8336828;28;20200;-63
2023/10/13 16:48:31;;;;;;;11.20;3.22;;;;;20.70;95962.00;;;;8338740;28;20196;-63
2023/10/13 16:52:34;;;;;;;11.63;3.13;;;;;20.30;95961.00;;;;8341439;28;20229;-63
2023/10/13 16:56:39;;;;;;;13.73;3.97;;;;;20.00;95953.00;;;;8337127;28;20243;-63
2023/10/13 17:00:44;;;;;;;15.32;4.07;;;;;19.60;95958.00;;;;8341900;28;20235;-63
2023/10/13 17:04:48;;;;;;;9.07;4.20;;;;;19.30;95964.00;;;;8335870;28;20718;-63
2023/10/13 17:08:52;;;;;;;13.43;3.25;;;;;19.10;95959.00;;;;8334992;28;20203;-63
2023/10/13 17:12:59;;;;;;;12.00;3.95;;;;;18.90;95950.00;;;;8332166;28;20651;-62
2023/10/13 17:17:03;;;;;;;12.80;4.15;;;;;18.80;95948.00;;;;8332430;28;20239;-62
2023/10/13 17:21:15;;;;;;;9.05;3.80;;;;;18.60;95947.00;;;;8338266;28;20208;-61
2023/10/13 17:25:18;;;;;;;13.20;3.85;;;;;18.40;95935.00;;;;8341270;28;20654;-62
2023/10/13 17:29:23;;;;;;;8.48;3.75;;;;;18.20;95933.00;;;;8338561;28;20216;-63
2023/10/13 17:33:26;;;;;;;16.73;3.80;;;;;18.10;95931.00;;;;8328767;28;20288;-62
2023/10/13 17:37:30;;;;;;;18.65;4.15;;;;;18.00;95933.00;;;;8336481;28;20673;-63
2023/10/13 17:41:33;;;;;;;8.90;3.47;;;;;17.80;95934.00;;;;8326458;28;20193;-63
2023/10/13 17:45:38;;;;;;;12.65;3.92;;;;;17.60;95934.00;;;;8338436;28;20204;-62
2023/10/13 17:49:41;;;;;;;8.45;3.13;;;;;17.50;95932.00;;;;8337236;28;20661;-62
2023/10/13 17:53:45;;;;;;;7.18;3.35;;;;;17.40;95928.00;;;;8341193;28;20279;-62
2023/10/13 17:57:49;;;;;;;53.33;5.95;;;;;17.40;95930.00;;;;8344548;28;20236;-62
2023/10/13 18:01:53;;;;;;;14.98;4.32;;;;;17.30;95930.00;;;;8342572;28;20220;-62
2023/10/13 18:06:00;;;;;;;14.55;3.63;;;;;17.10;95929.00;;;;8343110;28;20315;-62
2023/10/13 18:10:03;;;;;;;17.75;4.30;;;;;17.00;95924.00;;;;8341239;28;20229;-62
2023/10/13 18:14:11;;;;;;;23.63;4.18;;;;;16.90;95922.00;;;;8340856;28;20204;-62
2023/10/13 18:18:16;;;;;;;12.32;4.05;;;;;16.70;95912.00;;;;8344754;28;20205;-62
2023/10/13 18:22:19;;;;;;;10.05;4.13;;;;;16.60;95910.00;;;;8340518;28;20199;-63
2023/10/13 18:26:22;;;;;;;9.40;3.75;;;;;16.50;95916.00;;;;8332056;28;20193;-62
2023/10/13 18:30:28;;;;;;;14.07;4.53;;;;;16.30;95909.00;;;;8342153;28;20911;-61
2023/10/13 18:34:32;;;;;;;8.05;3.72;;;;;16.20;95915.00;;;;8337841;28;20914;-61
2023/10/13 18:38:35;;;;;;;14.77;4.05;;;;;16.10;95916.00;;;;8342125;28;20312;-61
2023/10/13 18:42:47;;;;;;;13.10;4.25;;;;;16.10;95907.00;;;;8339057;28;20654;-61
2023/10/13 18:46:51;;;;;;;10.00;4.22;;;;;16.00;95909.00;;;;8333247;28;20278;-61
2023/10/13 18:50:58;;;;;;;13.25;4.50;;;;;15.90;95915.00;;;;8333191;28;21699;-62
2023/10/13 18:55:03;;;;;;;10.25;4.28;;;;;15.80;95910.00;;;;8338933;28;20256;-61
2023/10/13 18:59:08;;;;;;;13.63;4.78;;;;;15.80;95914.00;;;;8336062;28;20201;-61
2023/10/13 19:03:11;;;;;;;20.48;4.13;;;;;15.70;95910.00;;;;8331753;28;20236;-62
2023/10/13 19:07:16;;;;;;;13.43;4.60;;;;;15.80;95900.00;;;;8343880;28;20244;-61
2023/10/13 19:11:20;;;;;;;9.45;4.50;;;;;15.70;95894.00;;;;8332616;28;20647;-61
2023/10/13 19:15:24;;;;;;;15.40;5.20;;;;;15.50;95892.00;;;;8338839;28;20243;-61
2023/10/13 19:19:32;;;;;;;11.63;5.10;;;;;15.50;95892.00;;;;8341646;28;20286;-61
2023/10/13 19:23:37;;;;;;;15.65;5.57;;;;;15.50;95888.00;;;;8344046;28;20246;-62
2023/10/13 19:27:40;;;;;;;17.85;6.22;;;;;15.50;95886.00;;;;8339937;28;20205;-62
2023/10/13 19:31:43;;;;;;;19.55;5.65;;;;;15.40;95889.00;;;;8334426;28;20197;-62
2023/10/13 19:35:47;;;;;;;18.35;6.20;;;;;15.40;95881.00;;;;8344074;28;20224;-62
2023/10/13 19:39:51;;;;;;;12.85;5.70;;;;;15.40;95889.00;;;;8341390;28;20206;-62
2023/10/13 19:43:56;;;;;;;13.07;5.18;;;;;15.30;95892.00;;;;8338114;28;20211;-62
2023/10/13 19:47:59;;;;;;;16.23;5.90;;;;;15.30;95891.00;;;;8343148;28;20276;-62
2023/10/13 19:52:03;;;;;;;17.20;5.70;;;;;15.20;95890.00;;;;8328977;28;20205;-62
2023/10/13 19:56:13;;;;;;;19.20;6.63;;;;;15.10;95887.00;;;;8332099;28;20233;-62
2023/10/13 20:00:25;;;;;;;19.00;6.40;;;;;15.00;95891.00;;;;8339187;28;21486;-62
2023/10/13 20:04:29;;;;;;;16.67;6.60;;;;;14.80;95883.00;;;;8332067;28;20227;-63
2023/10/13 20:08:34;;;;;;;15.57;6.07;;;;;14.70;95892.00;;;;8333328;28;20283;-63
2023/10/13 20:12:40;;;;;;;18.67;7.20;;;;;14.60;95881.00;;;;8336181;28;20288;-63
2023/10/13 20:16:44;;;;;;;19.45;6.97;;;;;14.50;95873.00;;;;8335710;28;20215;-63
2023/10/13 20:20:47;;;;;;;28.55;6.93;;;;;14.40;95870.00;;;;8339382;28;20201;-63
2023/10/13 20:24:51;;;;;;;14.75;5.63;;;;;14.30;95864.00;;;;8337270;28;20205;-63
2023/10/13 20:28:55;;;;;;;16.10;6.03;;;;;14.30;95866.00;;;;8334710;28;20200;-63
2023/10/13 20:32:59;;;;;;;15.48;6.88;;;;;14.30;95867.00;;;;8339267;28;20196;-63
2023/10/13 20:37:02;;;;;;;23.48;5.97;;;;;14.30;95858.00;;;;8338953;28;20697;-63
2023/10/13 20:41:07;;;;;;;12.30;5.55;;;;;14.40;95846.00;;;;8340974;28;20792;-63
2023/10/13 20:45:12;;;;;;;14.20;5.60;;;;;14.30;95832.00;;;;8333746;28;20292;-62
2023/10/13 20:49:15;;;;;;;16.27;5.10;;;;;14.20;95840.00;;;;8338383;28;20944;-64
2023/10/13 20:53:18;;;;;;;20.98;5.80;;;;;14.30;95827.00;;;;8333171;28;20208;-63
2023/10/13 20:57:21;;;;;;;19.45;5.07;;;;;14.30;95827.00;;;;8340288;28;20654;-63
2023/10/13 21:01:28;;;;;;;10.65;4.40;;;;;14.40;95827.00;;;;8337248;28;20316;-63
2023/10/13 21:05:33;;;;;;;16.13;5.70;;;;;14.40;95830.00;;;;8338867;28;20804;-63
2023/10/13 21:09:37;;;;;;;16.80;4.93;;;;;14.20;95827.00;;;;8340411;28;20204;-63
2023/10/13 21:13:41;;;;;;;12.52;4.82;;;;;14.10;95822.00;;;;8338930;28;20212;-63
2023/10/13 21:17:48;;;;;;;16.67;5.15;;;;;14.00;95832.00;;;;8340458;28;20762;-63
2023/10/13 21:21:53;;;;;;;13.18;5.97;;;;;13.90;95820.00;;;;8334659;28;20199;-63
2023/10/13 21:25:56;;;;;;;17.40;5.35;;;;;13.80;95817.00;;;;8348627;28;20211;-63
2023/10/13 21:30:00;;;;;;;13.30;5.63;;;;;13.60;95797.00;;;;8336660;28;20208;-63
2023/10/13 21:34:06;;;;;;;14.27;5.00;;;;;13.50;95791.00;;;;8344968;28;20288;-63
2023/10/13 21:38:14;;;;;;;12.75;5.60;;;;;13.50;95786.00;;;;8350276;28;20863;-64
2023/10/13 21:42:17;;;;;;;12.88;4.78;;;;;13.40;95781.00;;;;8331264;28;20291;-63
2023/10/13 21:46:22;;;;;;;12.48;5.15;;;;;13.30;95777.00;;;;8345764;28;20195;-64
2023/10/13 21:50:27;;;;;;;13.82;5.20;;;;;13.30;95790.00;;;;8345024;28;20197;-63
2023/10/13 21:54:30;;;;;;;15.73;4.68;;;;;13.20;95777.00;;;;8339423;28;20310;-63
2023/10/13 21:58:33;;;;;;;14.75;5.40;;;;;13.30;95777.00;;;;8343568;28;20262;-63
2023/10/13 22:02:36;;;;;;;15.30;5.70;;;;;13.40;95778.00;;;;8334370;28;20235;-63
2023/10/13 22:06:45;;;;;;;15.52;4.97;;;;;13.30;95779.00;;;;8337828;28;20218;-63
2023/10/13 22:10:49;;;;;;;17.42;5.13;;;;;13.30;95789.00;;;;8344791;28;20208;-62